createdAt,value
2022-08-14T00:00:16.797Z,18.67
2022-08-14T00:01:17.291Z,18.56
2022-08-14T00:02:16.926Z,18.54
2022-08-14T00:03:16.512Z,18.53
2022-08-14T00:04:32.514Z,18.51
2022-08-14T00:05:17.057Z,18.49
2022-08-14T00:06:25.531Z,18.46
2022-08-14T00:07:16.677Z,18.44
2022-08-14T00:08:17.204Z,18.42
2022-08-14T00:09:16.678Z,18.42
2022-08-14T00:10:50.732Z,18.42
2022-08-14T00:11:17.094Z,18.37
2022-08-14T00:12:23.521Z,18.34
2022-08-14T00:13:17.184Z,18.37
2022-08-14T00:14:17.177Z,18.34
2022-08-14T00:15:16.933Z,18.30
2022-08-14T00:16:40.649Z,18.26
2022-08-14T00:17:17.010Z,18.27
2022-08-14T00:18:30.309Z,18.26
2022-08-14T00:19:18.966Z,18.26
2022-08-14T00:20:23.624Z,18.27
2022-08-14T00:21:17.106Z,18.23
2022-08-14T00:22:22.060Z,18.22
2022-08-14T00:23:17.507Z,18.20
2022-08-14T00:24:23.022Z,18.16
2022-08-14T00:25:16.387Z,18.13
2022-08-14T00:26:21.566Z,18.12
2022-08-14T00:27:16.748Z,18.12
2022-08-14T00:28:17.777Z,18.12
2022-08-14T00:29:16.813Z,18.13
2022-08-14T00:30:17.517Z,18.22
2022-08-14T00:31:16.618Z,18.17
2022-08-14T00:32:50.334Z,18.15
2022-08-14T00:33:17.111Z,18.13
2022-08-14T00:34:35.668Z,18.11
2022-08-14T00:35:16.964Z,18.11
2022-08-14T00:36:34.814Z,18.11
2022-08-14T00:37:16.276Z,18.11
2022-08-14T00:38:16.771Z,18.08
2022-08-14T00:39:17.867Z,18.06
2022-08-14T00:40:18.997Z,18.05
2022-08-14T00:41:16.805Z,18.05
2022-08-14T00:42:21.587Z,18.02
2022-08-14T00:43:16.339Z,17.99
2022-08-14T00:44:21.248Z,18.01
2022-08-14T00:45:16.295Z,18.02
2022-08-14T00:46:23.247Z,17.95
2022-08-14T00:47:16.808Z,17.95
2022-08-14T00:48:34.194Z,17.92
2022-08-14T00:49:17.040Z,17.91
2022-08-14T00:50:17.548Z,17.91
2022-08-14T00:51:16.543Z,17.88
2022-08-14T00:52:17.974Z,17.95
2022-08-14T00:53:17.065Z,17.92
2022-08-14T00:54:17.197Z,17.92
2022-08-14T00:55:16.672Z,17.92
2022-08-14T00:56:17.122Z,17.92
2022-08-14T00:57:16.963Z,17.87
2022-08-14T00:58:16.620Z,17.82
2022-08-14T00:59:17.073Z,17.80
2022-08-14T01:00:18.024Z,17.66
2022-08-14T01:01:17.278Z,17.64
2022-08-14T01:02:17.312Z,17.61
2022-08-14T01:03:16.531Z,17.61
2022-08-14T01:04:37.514Z,17.58
2022-08-14T01:05:16.943Z,17.58
2022-08-14T01:06:16.658Z,17.57
2022-08-14T01:07:17.106Z,17.54
2022-08-14T01:08:20.525Z,17.57
2022-08-14T01:09:16.865Z,17.53
2022-08-14T01:10:16.290Z,17.54
2022-08-14T01:11:18.937Z,17.56
2022-08-14T01:12:26.585Z,17.54
2022-08-14T01:13:16.530Z,17.52
2022-08-14T01:14:18.366Z,17.52
2022-08-14T01:15:16.982Z,17.56
2022-08-14T01:16:16.466Z,17.52
2022-08-14T01:17:17.252Z,17.52
2022-08-14T01:18:16.834Z,17.47
2022-08-14T01:19:17.301Z,17.49
2022-08-14T01:20:27.381Z,17.49
2022-08-14T01:21:17.200Z,17.43
2022-08-14T01:22:16.411Z,17.40
2022-08-14T01:23:18.661Z,17.36
2022-08-14T01:24:23.100Z,17.36
2022-08-14T01:25:16.767Z,17.32
2022-08-14T01:26:23.231Z,17.30
2022-08-14T01:27:16.313Z,17.33
2022-08-14T01:28:34.713Z,17.27
2022-08-14T01:29:58.390Z,17.22
2022-08-14T01:30:16.899Z,17.21
2022-08-14T01:31:16.495Z,17.22
2022-08-14T01:32:16.321Z,17.22
2022-08-14T01:33:16.755Z,17.21
2022-08-14T01:35:16.371Z,17.16
2022-08-14T01:35:31.745Z,17.11
2022-08-14T01:36:21.032Z,17.09
2022-08-14T01:37:16.808Z,17.04
2022-08-14T01:38:16.527Z,17.01
2022-08-14T01:39:17.105Z,16.98
2022-08-14T01:40:19.852Z,16.98
2022-08-14T01:41:17.062Z,16.97
2022-08-14T01:42:30.829Z,16.97
2022-08-14T01:43:18.465Z,16.97
2022-08-14T01:44:31.430Z,16.97
2022-08-14T01:45:17.847Z,16.94
2022-08-14T01:46:24.302Z,16.99
2022-08-14T01:47:21.518Z,16.99
2022-08-14T01:48:20.703Z,16.97
2022-08-14T01:49:16.381Z,16.97
2022-08-14T01:50:16.800Z,16.99
2022-08-14T01:51:18.966Z,17.02
2022-08-14T01:52:33.815Z,17.04
2022-08-14T01:53:16.453Z,17.05
2022-08-14T01:54:16.871Z,17.01
2022-08-14T01:55:16.801Z,17.04
2022-08-14T01:56:18.341Z,17.02
2022-08-14T01:57:16.328Z,17.04
2022-08-14T01:58:18.386Z,16.99
2022-08-14T01:59:18.368Z,16.99
2022-08-14T02:00:17.181Z,16.95
2022-08-14T02:01:16.639Z,16.99
2022-08-14T02:02:19.738Z,17.02
2022-08-14T02:03:17.080Z,17.05
2022-08-14T02:04:20.673Z,17.04
2022-08-14T02:05:16.527Z,16.98
2022-08-14T02:06:32.003Z,16.97
2022-08-14T02:07:16.939Z,16.92
2022-08-14T02:08:16.421Z,16.95
2022-08-14T02:09:18.999Z,16.98
2022-08-14T02:10:16.996Z,16.97
2022-08-14T02:11:16.333Z,16.94
2022-08-14T02:12:19.517Z,16.91
2022-08-14T02:13:17.395Z,16.90
2022-08-14T02:14:16.982Z,16.84
2022-08-14T02:15:16.777Z,16.84
2022-08-14T02:16:22.232Z,16.75
2022-08-14T02:17:16.497Z,16.71
2022-08-14T02:18:18.037Z,16.68
2022-08-14T02:19:16.897Z,16.73
2022-08-14T02:20:16.314Z,16.71
2022-08-14T02:21:16.562Z,16.67
2022-08-14T02:22:16.464Z,16.67
2022-08-14T02:23:24.006Z,16.70
2022-08-14T02:24:38.570Z,16.70
2022-08-14T02:25:17.083Z,16.67
2022-08-14T02:26:18.294Z,16.68
2022-08-14T02:28:19.408Z,16.70
2022-08-14T02:28:19.713Z,16.73
2022-08-14T02:29:17.070Z,16.68
2022-08-14T02:30:16.658Z,16.68
2022-08-14T02:31:16.952Z,16.68
2022-08-14T02:32:20.147Z,16.66
2022-08-14T02:33:17.128Z,16.68
2022-08-14T02:34:20.256Z,16.75
2022-08-14T02:35:17.491Z,16.71
2022-08-14T02:37:03.244Z,16.67
2022-08-14T02:37:16.919Z,16.64
2022-08-14T02:38:29.862Z,16.62
2022-08-14T02:39:17.062Z,16.60
2022-08-14T02:40:16.564Z,16.62
2022-08-14T02:41:17.066Z,16.63
2022-08-14T02:42:16.346Z,16.63
2022-08-14T02:43:17.097Z,16.60
2022-08-14T02:44:17.256Z,16.56
2022-08-14T02:45:17.656Z,16.60
2022-08-14T02:46:20.253Z,16.63
2022-08-14T02:47:19.254Z,16.59
2022-08-14T02:49:01.203Z,16.62
2022-08-14T02:49:17.179Z,16.63
2022-08-14T02:50:16.722Z,16.62
2022-08-14T02:51:16.330Z,16.60
2022-08-14T02:52:26.627Z,16.60
2022-08-14T02:53:16.518Z,16.64
2022-08-14T02:54:19.594Z,16.64
2022-08-14T02:55:20.010Z,16.59
2022-08-14T02:56:29.874Z,16.57
2022-08-14T02:57:39.543Z,16.56
2022-08-14T02:58:21.588Z,16.54
2022-08-14T02:59:16.316Z,16.54
2022-08-14T03:00:17.939Z,16.52
2022-08-14T03:01:16.541Z,16.52
2022-08-14T03:02:33.671Z,16.52
2022-08-14T03:03:16.680Z,16.49
2022-08-14T03:04:17.630Z,16.52
2022-08-14T03:05:17.175Z,16.53
2022-08-14T03:06:20.493Z,16.50
2022-08-14T03:07:17.031Z,16.54
2022-08-14T03:08:18.829Z,16.50
2022-08-14T03:09:16.976Z,16.45
2022-08-14T03:10:27.260Z,16.46
2022-08-14T03:11:16.837Z,16.43
2022-08-14T03:12:17.853Z,16.45
2022-08-14T03:13:19.204Z,16.40
2022-08-14T03:14:17.965Z,16.42
2022-08-14T03:15:19.274Z,16.42
2022-08-14T03:16:20.229Z,16.40
2022-08-14T03:17:17.426Z,16.40
2022-08-14T03:18:18.437Z,16.45
2022-08-14T03:19:17.007Z,16.45
2022-08-14T03:20:17.267Z,16.42
2022-08-14T03:21:16.690Z,16.39
2022-08-14T03:22:17.477Z,16.35
2022-08-14T03:23:16.383Z,16.35
2022-08-14T03:24:21.600Z,16.35
2022-08-14T03:25:17.244Z,16.33
2022-08-14T03:26:18.092Z,16.35
2022-08-14T03:27:16.706Z,16.29
2022-08-14T03:28:29.461Z,16.26
2022-08-14T03:29:16.699Z,16.28
2022-08-14T03:30:23.172Z,16.29
2022-08-14T03:31:17.059Z,16.31
2022-08-14T03:32:16.451Z,16.28
2022-08-14T03:33:16.882Z,16.29
2022-08-14T03:34:24.239Z,16.29
2022-08-14T03:35:16.811Z,16.33
2022-08-14T03:37:29.452Z,16.32
2022-08-14T03:37:29.460Z,16.33
2022-08-14T03:39:10.185Z,16.32
2022-08-14T03:39:21.611Z,16.29
2022-08-14T03:40:17.723Z,16.28
2022-08-14T03:41:17.096Z,16.21
2022-08-14T03:42:19.289Z,16.21
2022-08-14T03:43:16.385Z,16.17
2022-08-14T03:45:18.143Z,16.08
2022-08-14T03:45:18.202Z,16.08
2022-08-14T03:46:38.658Z,16.05
2022-08-14T03:47:16.317Z,16.01
2022-08-14T03:48:26.797Z,15.95
2022-08-14T03:49:16.548Z,15.91
2022-08-14T03:50:18.052Z,15.91
2022-08-14T03:51:16.673Z,15.88
2022-08-14T03:52:18.273Z,15.88
2022-08-14T03:53:16.925Z,15.90
2022-08-14T03:54:20.637Z,15.92
2022-08-14T03:55:17.279Z,15.92
2022-08-14T03:56:17.901Z,15.92
2022-08-14T03:57:17.066Z,15.90
2022-08-14T03:58:23.886Z,15.90
2022-08-14T03:59:17.598Z,15.91
2022-08-14T04:00:40.972Z,15.87
2022-08-14T04:01:17.159Z,15.85
2022-08-14T04:02:33.466Z,15.84
2022-08-14T04:03:23.674Z,15.77
2022-08-14T04:04:16.849Z,15.74
2022-08-14T04:05:16.889Z,15.72
2022-08-14T04:06:20.904Z,15.67
2022-08-14T04:07:16.584Z,15.74
2022-08-14T04:08:23.373Z,15.77
2022-08-14T04:09:17.283Z,15.76
2022-08-14T04:10:17.177Z,15.74
2022-08-14T04:11:16.697Z,15.74
2022-08-14T04:12:16.740Z,15.72
2022-08-14T04:13:17.193Z,15.74
2022-08-14T04:14:16.699Z,15.74
2022-08-14T04:15:17.190Z,15.76
2022-08-14T04:16:16.543Z,15.76
2022-08-14T04:17:16.968Z,15.69
2022-08-14T04:18:16.438Z,15.70
2022-08-14T04:19:16.430Z,15.76
2022-08-14T04:20:17.146Z,15.77
2022-08-14T04:21:16.478Z,15.77
2022-08-14T04:22:16.762Z,15.80
2022-08-14T04:23:18.522Z,15.85
2022-08-14T04:24:17.029Z,15.85
2022-08-14T04:25:16.851Z,15.84
2022-08-14T04:26:27.056Z,15.81
2022-08-14T04:27:17.177Z,15.83
2022-08-14T04:28:58.562Z,15.81
2022-08-14T04:29:17.223Z,15.84
2022-08-14T04:30:22.245Z,15.87
2022-08-14T04:31:17.213Z,15.90
2022-08-14T04:32:56.956Z,15.92
2022-08-14T04:33:20.460Z,15.95
2022-08-14T04:34:21.134Z,15.98
2022-08-14T04:35:17.720Z,16.00
2022-08-14T04:36:17.609Z,16.00
2022-08-14T04:37:17.421Z,16.01
2022-08-14T04:38:36.226Z,16.02
2022-08-14T04:39:16.591Z,16.04
2022-08-14T04:40:17.135Z,16.07
2022-08-14T04:41:16.756Z,16.09
2022-08-14T04:42:16.459Z,16.11
2022-08-14T04:43:17.177Z,16.17
2022-08-14T04:44:26.954Z,16.21
2022-08-14T04:45:16.901Z,16.35
2022-08-14T04:46:54.667Z,16.50
2022-08-14T04:47:16.762Z,16.53
2022-08-14T04:48:36.858Z,16.63
2022-08-14T04:49:16.618Z,16.70
2022-08-14T04:50:17.073Z,16.70
2022-08-14T04:51:16.534Z,16.81
2022-08-14T04:52:19.162Z,16.88
2022-08-14T04:53:16.750Z,16.90
2022-08-14T04:54:17.187Z,16.99
2022-08-14T04:55:16.769Z,17.08
2022-08-14T04:56:30.315Z,17.12
2022-08-14T04:57:16.509Z,17.15
2022-08-14T04:58:22.084Z,17.18
2022-08-14T04:59:16.580Z,17.12
2022-08-14T05:00:18.097Z,17.09
2022-08-14T05:01:17.847Z,17.12
2022-08-14T05:02:16.393Z,17.23
2022-08-14T05:03:16.762Z,17.27
2022-08-14T05:04:19.661Z,17.37
2022-08-14T05:05:17.223Z,17.53
2022-08-14T05:06:38.656Z,17.64
2022-08-14T05:07:16.940Z,17.85
2022-08-14T05:08:23.728Z,17.95
2022-08-14T05:09:17.207Z,17.99
2022-08-14T05:10:21.742Z,18.11
2022-08-14T05:11:16.819Z,18.16
2022-08-14T05:13:11.387Z,18.20
2022-08-14T05:13:17.145Z,18.32
2022-08-14T05:14:34.551Z,18.36
2022-08-14T05:15:17.003Z,18.34
2022-08-14T05:16:16.919Z,18.36
2022-08-14T05:17:16.330Z,18.40
2022-08-14T05:18:17.859Z,18.47
2022-08-14T05:19:24.802Z,18.42
2022-08-14T05:20:33.344Z,18.30
2022-08-14T05:21:55.719Z,18.36
2022-08-14T05:22:18.853Z,18.34
2022-08-14T05:23:16.807Z,18.37
2022-08-14T05:24:16.964Z,18.44
2022-08-14T05:25:17.230Z,18.47
2022-08-14T05:26:17.102Z,18.44
2022-08-14T05:27:16.869Z,18.51
2022-08-14T05:28:16.609Z,18.58
2022-08-14T05:29:17.176Z,18.71
2022-08-14T05:30:16.769Z,18.75
2022-08-14T05:31:20.469Z,18.84
2022-08-14T05:32:16.563Z,18.92
2022-08-14T05:33:17.235Z,18.96
2022-08-14T05:34:16.654Z,19.06
2022-08-14T05:35:16.537Z,19.07
2022-08-14T05:36:17.130Z,18.99
2022-08-14T05:37:16.612Z,19.03
2022-08-14T05:38:22.493Z,19.09
2022-08-14T05:39:17.301Z,19.22
2022-08-14T05:40:16.896Z,19.27
2022-08-14T05:41:17.165Z,19.30
2022-08-14T05:42:21.826Z,19.40
2022-08-14T05:43:16.353Z,19.48
2022-08-14T05:44:16.799Z,19.53
2022-08-14T05:45:17.273Z,19.61
2022-08-14T05:46:16.926Z,19.68
2022-08-14T05:47:16.371Z,19.65
2022-08-14T05:48:23.374Z,19.74
2022-08-14T05:49:16.865Z,19.86
2022-08-14T05:50:17.174Z,19.98
2022-08-14T05:51:17.227Z,20.03
2022-08-14T05:52:18.031Z,20.09
2022-08-14T05:53:16.755Z,20.16
2022-08-14T05:54:26.875Z,20.17
2022-08-14T05:55:16.971Z,20.27
2022-08-14T05:56:16.528Z,20.40
2022-08-14T05:57:17.015Z,20.44
2022-08-14T05:58:16.494Z,20.57
2022-08-14T05:59:17.171Z,20.62
2022-08-14T06:00:24.631Z,20.65
2022-08-14T06:01:17.100Z,20.71
2022-08-14T06:02:17.070Z,20.74
2022-08-14T06:03:17.213Z,20.79
2022-08-14T06:04:16.635Z,20.89
2022-08-14T06:05:17.107Z,21.00
2022-08-14T06:06:16.811Z,20.93
2022-08-14T06:07:17.274Z,20.98
2022-08-14T06:08:21.937Z,21.13
2022-08-14T06:09:16.355Z,21.19
2022-08-14T06:10:19.004Z,21.23
2022-08-14T06:11:20.475Z,21.36
2022-08-14T06:12:31.754Z,21.51
2022-08-14T06:13:16.891Z,21.58
2022-08-14T06:14:21.202Z,21.78
2022-08-14T06:15:16.658Z,22.00
2022-08-14T06:16:17.636Z,22.03
2022-08-14T06:17:25.735Z,22.09
2022-08-14T06:18:17.521Z,22.15
2022-08-14T06:19:18.195Z,22.15
2022-08-14T06:20:16.970Z,22.23
2022-08-14T06:21:17.466Z,22.35
2022-08-14T06:22:17.075Z,22.47
2022-08-14T06:23:16.851Z,22.54
2022-08-14T06:24:18.222Z,22.51
2022-08-14T06:25:16.619Z,22.60
2022-08-14T06:26:16.535Z,22.52
2022-08-14T06:27:16.823Z,22.62
2022-08-14T06:28:27.115Z,22.24
2022-08-14T06:29:17.017Z,22.34
2022-08-14T06:30:16.448Z,22.67
2022-08-14T06:31:16.867Z,22.96
2022-08-14T06:32:37.127Z,23.02
2022-08-14T06:33:17.907Z,23.10
2022-08-14T06:35:05.038Z,23.14
2022-08-14T06:35:17.130Z,23.13
2022-08-14T06:36:18.433Z,23.16
2022-08-14T06:37:17.138Z,23.22
2022-08-14T06:38:17.416Z,23.36
2022-08-14T06:39:17.210Z,23.31
2022-08-14T06:40:25.838Z,23.64
2022-08-14T06:41:19.160Z,23.89
2022-08-14T06:42:18.463Z,24.17
2022-08-14T06:43:16.923Z,24.09
2022-08-14T06:44:17.050Z,24.31
2022-08-14T06:45:16.487Z,24.44
2022-08-14T06:46:22.354Z,24.78
2022-08-14T06:47:16.545Z,24.90
2022-08-14T06:48:17.190Z,25.03
2022-08-14T06:49:16.904Z,25.31
2022-08-14T06:50:16.365Z,25.78
2022-08-14T06:51:17.156Z,25.90
2022-08-14T06:52:17.215Z,25.80
2022-08-14T06:53:16.622Z,25.68
2022-08-14T06:54:17.170Z,25.72
2022-08-14T06:55:16.325Z,25.11
2022-08-14T06:56:16.743Z,25.37
2022-08-14T06:57:17.163Z,25.30
2022-08-14T06:58:24.716Z,25.28
2022-08-14T06:59:19.862Z,25.72
2022-08-14T07:00:22.382Z,25.89
2022-08-14T07:01:18.395Z,26.55
2022-08-14T07:02:17.908Z,26.56
2022-08-14T07:03:16.577Z,26.51
2022-08-14T07:04:22.602Z,26.34
2022-08-14T07:05:17.076Z,26.11
2022-08-14T07:06:21.324Z,26.11
2022-08-14T07:07:16.291Z,26.68
2022-08-14T07:08:17.098Z,26.68
2022-08-14T07:09:19.993Z,26.35
2022-08-14T07:10:17.423Z,26.27
2022-08-14T07:11:17.066Z,25.88
2022-08-14T07:12:35.117Z,26.40
2022-08-14T07:13:16.342Z,26.56
2022-08-14T07:14:17.082Z,26.96
2022-08-14T07:15:16.514Z,26.16
2022-08-14T07:16:17.212Z,26.38
2022-08-14T07:17:16.534Z,26.63
2022-08-14T07:18:17.011Z,27.13
2022-08-14T07:19:16.405Z,27.44
2022-08-14T07:20:18.719Z,26.90
2022-08-14T07:21:17.014Z,27.42
2022-08-14T07:22:17.514Z,27.66
2022-08-14T07:23:20.062Z,27.97
2022-08-14T07:24:22.239Z,27.11
2022-08-14T07:25:17.002Z,27.04
2022-08-14T07:26:16.414Z,26.90
2022-08-14T07:27:16.778Z,27.54
2022-08-14T07:28:20.320Z,27.99
2022-08-14T07:29:17.474Z,28.45
2022-08-14T07:30:33.588Z,28.85
2022-08-14T07:31:17.196Z,29.03
2022-08-14T07:32:20.143Z,28.93
2022-08-14T07:33:16.747Z,29.38
2022-08-14T07:34:26.299Z,29.72
2022-08-14T07:35:17.250Z,29.72
2022-08-14T07:36:26.881Z,30.00
2022-08-14T07:37:17.115Z,30.04
2022-08-14T07:38:16.603Z,29.71
2022-08-14T07:39:17.288Z,29.76
2022-08-14T07:40:22.089Z,29.33
2022-08-14T07:41:16.827Z,28.86
2022-08-14T07:42:16.522Z,28.82
2022-08-14T07:43:17.172Z,28.97
2022-08-14T07:44:22.661Z,28.96
2022-08-14T07:45:17.283Z,28.72
2022-08-14T07:46:21.104Z,28.69
2022-08-14T07:47:17.274Z,28.83
2022-08-14T07:48:16.748Z,29.82
2022-08-14T07:49:17.699Z,28.90
2022-08-14T07:50:18.591Z,29.44
2022-08-14T07:51:16.662Z,29.93
2022-08-14T07:52:21.910Z,29.76
2022-08-14T07:53:17.078Z,29.76
2022-08-14T07:54:23.025Z,29.82
2022-08-14T07:55:16.743Z,28.30
2022-08-14T07:56:22.208Z,28.27
2022-08-14T07:57:22.298Z,28.14
2022-08-14T07:58:30.584Z,29.10
2022-08-14T07:59:16.998Z,29.24
2022-08-14T08:00:30.120Z,29.79
2022-08-14T08:01:17.018Z,30.00
2022-08-14T08:02:17.513Z,29.41
2022-08-14T08:03:16.519Z,30.11
2022-08-14T08:04:18.891Z,30.90
2022-08-14T08:05:16.699Z,30.80
2022-08-14T08:06:17.405Z,30.72
2022-08-14T08:07:16.569Z,30.38
2022-08-14T08:08:26.694Z,29.76
2022-08-14T08:09:16.648Z,29.30
2022-08-14T08:10:16.864Z,30.45
2022-08-14T08:11:17.269Z,30.75
2022-08-14T08:12:16.961Z,30.66
2022-08-14T08:13:16.877Z,31.44
2022-08-14T08:14:17.638Z,31.44
2022-08-14T08:15:16.571Z,31.77
2022-08-14T08:16:17.008Z,31.40
2022-08-14T08:17:16.460Z,31.61
2022-08-14T08:18:20.264Z,31.06
2022-08-14T08:19:16.324Z,30.76
2022-08-14T08:20:16.927Z,30.80
2022-08-14T08:21:17.972Z,30.98
2022-08-14T08:22:16.699Z,30.80
2022-08-14T08:23:20.562Z,30.66
2022-08-14T08:24:18.633Z,31.18
2022-08-14T08:25:17.778Z,31.24
2022-08-14T08:26:16.816Z,31.12
2022-08-14T08:27:16.966Z,30.87
2022-08-14T08:28:19.921Z,30.45
2022-08-14T08:29:16.823Z,30.52
2022-08-14T08:30:17.247Z,30.54
2022-08-14T08:31:16.632Z,30.25
2022-08-14T08:32:16.683Z,29.83
2022-08-14T08:33:17.136Z,30.04
2022-08-14T08:34:18.198Z,29.63
2022-08-14T08:35:16.828Z,29.80
2022-08-14T08:36:18.424Z,30.08
2022-08-14T08:37:17.061Z,29.97
2022-08-14T08:39:15.857Z,30.27
2022-08-14T08:39:20.550Z,29.72
2022-08-14T08:40:20.694Z,29.85
2022-08-14T08:41:16.450Z,30.28
2022-08-14T08:42:16.494Z,30.10
2022-08-14T08:43:16.969Z,30.94
2022-08-14T08:44:17.189Z,31.17
2022-08-14T08:45:17.273Z,30.76
2022-08-14T08:46:18.750Z,30.01
2022-08-14T08:47:16.620Z,29.55
2022-08-14T08:48:18.113Z,30.20
2022-08-14T08:49:16.330Z,29.93
2022-08-14T08:50:23.558Z,30.14
2022-08-14T08:51:16.894Z,30.17
2022-08-14T08:52:24.753Z,30.39
2022-08-14T08:53:16.362Z,31.12
2022-08-14T08:54:18.726Z,31.37
2022-08-14T08:55:17.062Z,31.59
2022-08-14T08:56:16.852Z,31.69
2022-08-14T08:57:17.096Z,29.99
2022-08-14T08:58:19.930Z,28.94
2022-08-14T08:59:16.558Z,29.65
2022-08-14T09:00:24.702Z,30.41
2022-08-14T09:01:16.429Z,30.82
2022-08-14T09:02:17.175Z,30.50
2022-08-14T09:03:17.046Z,30.47
2022-08-14T09:04:17.485Z,31.31
2022-08-14T09:05:16.889Z,31.32
2022-08-14T09:06:57.025Z,31.12
2022-08-14T09:07:16.831Z,31.12
2022-08-14T09:08:26.771Z,31.20
2022-08-14T09:09:17.155Z,30.32
2022-08-14T09:10:18.712Z,30.39
2022-08-14T09:11:18.548Z,30.50
2022-08-14T09:12:17.218Z,30.58
2022-08-14T09:13:16.710Z,30.65
2022-08-14T09:14:17.146Z,30.51
2022-08-14T09:15:16.965Z,30.68
2022-08-14T09:16:18.938Z,31.25
2022-08-14T09:17:17.275Z,31.37
2022-08-14T09:18:16.730Z,31.14
2022-08-14T09:19:16.511Z,31.83
2022-08-14T09:20:19.365Z,30.73
2022-08-14T09:21:17.085Z,31.40
2022-08-14T09:22:33.105Z,31.82
2022-08-14T09:23:16.803Z,32.79
2022-08-14T09:24:27.565Z,32.78
2022-08-14T09:25:16.746Z,31.85
2022-08-14T09:26:20.749Z,32.38
2022-08-14T09:27:22.429Z,32.20
2022-08-14T09:28:16.865Z,31.92
2022-08-14T09:29:16.281Z,31.12
2022-08-14T09:30:31.858Z,32.07
2022-08-14T09:31:17.537Z,32.07
2022-08-14T09:32:58.394Z,32.58
2022-08-14T09:33:17.368Z,31.99
2022-08-14T09:34:19.938Z,32.42
2022-08-14T09:35:16.869Z,32.24
2022-08-14T09:36:16.312Z,32.27
2022-08-14T09:37:17.059Z,32.66
2022-08-14T09:38:19.663Z,32.21
2022-08-14T09:39:21.374Z,30.72
2022-08-14T09:40:20.980Z,30.32
2022-08-14T09:41:16.329Z,31.58
2022-08-14T09:42:17.862Z,31.82
2022-08-14T09:43:19.942Z,32.38
2022-08-14T09:44:20.857Z,32.39
2022-08-14T09:45:16.827Z,32.39
2022-08-14T09:46:16.895Z,32.10
2022-08-14T09:47:17.254Z,31.75
2022-08-14T09:48:16.762Z,30.59
2022-08-14T09:49:16.825Z,30.07
2022-08-14T09:50:16.594Z,31.34
2022-08-14T09:51:17.067Z,31.82
2022-08-14T09:52:23.880Z,31.46
2022-08-14T09:53:17.886Z,30.94
2022-08-14T09:54:19.737Z,32.07
2022-08-14T09:55:16.348Z,32.48
2022-08-14T09:56:24.541Z,32.66
2022-08-14T09:57:17.034Z,32.18
2022-08-14T09:58:20.162Z,32.50
2022-08-14T09:59:17.039Z,33.30
2022-08-14T10:00:29.243Z,32.41
2022-08-14T10:01:16.908Z,32.03
2022-08-14T10:02:16.447Z,31.87
2022-08-14T10:03:17.159Z,31.82
2022-08-14T10:04:35.162Z,32.17
2022-08-14T10:05:16.962Z,33.20
2022-08-14T10:06:17.268Z,32.02
2022-08-14T10:07:17.279Z,32.23
2022-08-14T10:08:16.735Z,33.52
2022-08-14T10:09:17.120Z,33.61
2022-08-14T10:10:16.535Z,34.19
2022-08-14T10:11:16.447Z,34.77
2022-08-14T10:12:19.015Z,33.88
2022-08-14T10:13:16.847Z,32.02
2022-08-14T10:14:20.616Z,31.96
2022-08-14T10:15:16.714Z,31.89
2022-08-14T10:16:22.047Z,31.89
2022-08-14T10:17:17.174Z,32.91
2022-08-14T10:18:17.845Z,34.16
2022-08-14T10:19:17.081Z,34.57
2022-08-14T10:20:39.292Z,34.14
2022-08-14T10:21:16.406Z,33.02
2022-08-14T10:23:11.380Z,32.48
2022-08-14T10:23:17.808Z,32.51
2022-08-14T10:24:17.604Z,31.99
2022-08-14T10:25:16.590Z,32.32
2022-08-14T10:26:22.347Z,32.48
2022-08-14T10:27:16.889Z,33.31
2022-08-14T10:28:38.988Z,33.58
2022-08-14T10:29:19.097Z,33.40
2022-08-14T10:30:22.303Z,31.77
2022-08-14T10:31:16.547Z,31.09
2022-08-14T10:32:17.528Z,30.90
2022-08-14T10:33:16.558Z,30.98
2022-08-14T10:34:16.935Z,31.17
2022-08-14T10:35:16.465Z,31.20
2022-08-14T10:36:26.796Z,31.83
2022-08-14T10:37:17.258Z,31.45
2022-08-14T10:38:16.878Z,29.99
2022-08-14T10:39:16.443Z,29.44
2022-08-14T10:40:37.261Z,29.30
2022-08-14T10:41:16.382Z,30.58
2022-08-14T10:42:18.446Z,31.42
2022-08-14T10:43:16.748Z,30.58
2022-08-14T10:44:21.185Z,30.63
2022-08-14T10:45:16.359Z,30.68
2022-08-14T10:46:22.151Z,30.62
2022-08-14T10:47:37.604Z,29.97
2022-08-14T10:48:23.522Z,29.65
2022-08-14T10:49:16.549Z,29.79
2022-08-14T10:50:16.729Z,29.95
2022-08-14T10:51:17.159Z,30.06
2022-08-14T10:52:16.744Z,30.25
2022-08-14T10:53:16.538Z,30.21
2022-08-14T10:54:35.668Z,29.89
2022-08-14T10:55:16.621Z,29.62
2022-08-14T10:56:21.289Z,30.24
2022-08-14T10:57:17.044Z,31.06
2022-08-14T10:58:17.226Z,30.30
2022-08-14T10:59:16.392Z,29.92
2022-08-14T11:00:20.497Z,29.30
2022-08-14T11:01:16.451Z,29.44
2022-08-14T11:02:16.396Z,29.58
2022-08-14T11:03:17.320Z,30.30
2022-08-14T11:04:16.337Z,30.58
2022-08-14T11:05:16.480Z,30.91
2022-08-14T11:06:16.892Z,30.23
2022-08-14T11:07:20.746Z,29.85
2022-08-14T11:08:16.949Z,29.46
2022-08-14T11:09:16.831Z,29.55
2022-08-14T11:10:16.652Z,29.66
2022-08-14T11:11:17.107Z,29.21
2022-08-14T11:12:33.627Z,29.33
2022-08-14T11:13:16.339Z,29.00
2022-08-14T11:14:19.518Z,29.10
2022-08-14T11:15:16.314Z,29.68
2022-08-14T11:16:16.777Z,29.68
2022-08-14T11:17:18.147Z,29.33
2022-08-14T11:18:20.221Z,28.86
2022-08-14T11:19:17.069Z,28.68
2022-08-14T11:20:16.772Z,28.79
2022-08-14T11:21:16.332Z,28.52
2022-08-14T11:22:53.073Z,28.62
2022-08-14T11:23:16.899Z,28.68
2022-08-14T11:24:51.096Z,28.81
2022-08-14T11:25:16.890Z,29.00
2022-08-14T11:26:16.607Z,28.47
2022-08-14T11:27:17.163Z,28.39
2022-08-14T11:28:18.711Z,28.44
2022-08-14T11:29:16.910Z,28.38
2022-08-14T11:30:49.522Z,28.30
2022-08-14T11:31:17.274Z,29.06
2022-08-14T11:32:16.311Z,29.55
2022-08-14T11:33:16.930Z,30.13
2022-08-14T11:34:30.035Z,29.23
2022-08-14T11:35:16.871Z,29.18
2022-08-14T11:36:18.584Z,29.23
2022-08-14T11:37:19.311Z,29.55
2022-08-14T11:38:17.810Z,29.59
2022-08-14T11:39:16.436Z,29.72
2022-08-14T11:40:16.376Z,29.52
2022-08-14T11:41:17.018Z,29.42
2022-08-14T11:42:55.876Z,29.20
2022-08-14T11:43:16.861Z,29.11
2022-08-14T11:44:17.951Z,29.28
2022-08-14T11:45:17.018Z,29.26
2022-08-14T11:46:17.656Z,29.37
2022-08-14T11:47:16.766Z,30.24
2022-08-14T11:48:59.814Z,30.24
2022-08-14T11:49:18.894Z,30.18
2022-08-14T11:50:25.284Z,29.95
2022-08-14T11:51:17.164Z,29.58
2022-08-14T11:52:16.733Z,29.69
2022-08-14T11:53:17.184Z,29.65
2022-08-14T11:54:19.741Z,29.61
2022-08-14T11:55:16.441Z,29.34
2022-08-14T11:56:17.540Z,29.51
2022-08-14T11:57:18.613Z,29.14
2022-08-14T11:58:24.051Z,29.20
2022-08-14T11:59:16.979Z,29.58
2022-08-14T12:00:19.642Z,29.35
2022-08-14T12:01:16.954Z,29.38
2022-08-14T12:02:39.204Z,29.26
2022-08-14T12:03:18.805Z,29.23
2022-08-14T12:04:21.956Z,29.13
2022-08-14T12:05:16.961Z,29.20
2022-08-14T12:06:28.273Z,29.26
2022-08-14T12:07:16.902Z,29.27
2022-08-14T12:08:16.342Z,29.01
2022-08-14T12:09:16.491Z,29.18
2022-08-14T12:10:26.479Z,29.17
2022-08-14T12:11:16.391Z,29.03
2022-08-14T12:12:16.371Z,29.07
2022-08-14T12:13:17.431Z,29.07
2022-08-14T12:14:29.524Z,29.16
2022-08-14T12:15:16.310Z,29.11
2022-08-14T12:16:20.891Z,29.10
2022-08-14T12:17:16.414Z,28.87
2022-08-14T12:18:19.214Z,28.83
2022-08-14T12:19:16.347Z,28.83
2022-08-14T12:20:29.774Z,28.58
2022-08-14T12:21:19.210Z,28.51
2022-08-14T12:22:17.621Z,28.42
2022-08-14T12:23:16.683Z,28.55
2022-08-14T12:24:31.721Z,28.51
2022-08-14T12:25:16.603Z,28.59
2022-08-14T12:26:32.267Z,28.69
2022-08-14T12:27:17.054Z,28.68
2022-08-14T12:28:26.851Z,28.62
2022-08-14T12:29:16.339Z,28.52
2022-08-14T12:30:21.248Z,28.44
2022-08-14T12:31:16.956Z,28.61
2022-08-14T12:32:16.943Z,28.61
2022-08-14T12:33:16.574Z,28.66
2022-08-14T12:34:20.211Z,28.37
2022-08-14T12:35:16.696Z,28.34
2022-08-14T12:36:18.408Z,28.34
2022-08-14T12:37:17.236Z,28.34
2022-08-14T12:38:19.643Z,28.31
2022-08-14T12:39:16.751Z,28.38
2022-08-14T12:40:19.550Z,28.30
2022-08-14T12:41:20.935Z,28.34
2022-08-14T12:42:27.532Z,28.45
2022-08-14T12:43:16.713Z,28.51
2022-08-14T12:44:17.215Z,28.49
2022-08-14T12:45:17.435Z,28.54
2022-08-14T12:46:22.481Z,28.59
2022-08-14T12:47:17.107Z,28.64
2022-08-14T12:48:20.966Z,28.73
2022-08-14T12:49:17.783Z,28.89
2022-08-14T12:50:16.318Z,28.96
2022-08-14T12:51:16.743Z,29.03
2022-08-14T12:52:17.110Z,29.09